Time;durP1;ratioP1;P1;durP2;ratioP2;P2;SDS_P1;SDS_P2;PMS_P1;PMS_P2;Temp;Humidity;BMP_temperature;BMP_pressure;BME280_temperature;BME280_humidity;BME280_pressure;Samples;Min_cycle;Max_cycle;Signal;HPM_P1;HPM_P2
2024/04/04 00:00:29;;;;;;;;;4.33;2.67;;;;;17.72;100.00;100387.97;2097181;27;46354;-64
2024/04/04 00:01:30;;;;;;;;;2.25;1.50;;;;;17.72;100.00;100385.28;2104060;27;46670;-64
2024/04/04 00:02:30;;;;;;;;;5.00;2.00;;;;;17.72;100.00;100384.44;2103718;28;46612;-64
2024/04/04 00:03:30;;;;;;;;;6.00;2.00;;;;;17.70;100.00;100383.66;2105253;28;46558;-63
2024/04/04 00:04:31;;;;;;;;;1.00;1.00;;;;;17.69;100.00;100376.56;2104779;27;46677;-64
2024/04/04 00:05:31;;;;;;;;;3.00;2.00;;;;;17.70;100.00;100379.16;2101993;28;46382;-64
2024/04/04 00:06:31;;;;;;;;;3.00;1.33;;;;;17.70;100.00;100379.16;2100469;28;46249;-63
2024/04/04 00:07:32;;;;;;;;;4.00;3.00;;;;;17.70;100.00;100379.16;2101704;27;47249;-64
2024/04/04 00:08:33;;;;;;;;;2.67;1.67;;;;;17.68;100.00;100372.13;2105411;27;46222;-64
2024/04/04 00:09:33;;;;;;;;;3.67;2.67;;;;;17.68;100.00;100362.25;2105384;27;46761;-64
2024/04/04 00:10:33;;;;;;;;;2.00;2.00;;;;;17.68;100.00;100372.13;2103179;28;46379;-64
2024/04/04 00:11:33;;;;;;;;;6.00;1.67;;;;;17.68;100.00;100359.56;2104051;27;46322;-64
2024/04/04 00:12:34;;;;;;;;;2.00;2.00;;;;;17.68;100.00;100361.38;2105424;27;46529;-65
2024/04/04 00:13:35;;;;;;;;;7.00;2.67;;;;;17.67;100.00;100359.66;2105227;27;47828;-66
2024/04/04 00:14:35;;;;;;;;;3.25;2.00;;;;;17.67;100.00;100370.38;2102746;28;47084;-64
2024/04/04 00:15:39;;;;;;;;;2.00;2.00;;;;;17.68;100.00;100356.00;2103487;28;46337;-62
2024/04/04 00:16:39;;;;;;;;;2.25;2.00;;;;;17.71;100.00;100374.66;2105537;28;45890;-63
2024/04/04 00:17:40;;;;;;;;;4.00;1.67;;;;;17.70;100.00;100362.19;2103409;27;46586;-64
2024/04/04 00:18:42;;;;;;;;;3.00;2.33;;;;;17.69;100.00;100358.63;2103947;28;46035;-65
2024/04/04 00:19:46;;;;;;;;;4.00;2.75;;;;;17.68;100.00;100356.88;2105473;27;46345;-65
2024/04/04 00:20:48;;;;;;;;;4.00;3.50;;;;;17.68;100.00;100356.88;2102490;28;46803;-66
2024/04/04 00:21:48;;;;;;;;;2.50;2.25;;;;;17.70;100.00;100356.81;2100880;27;46002;-64
2024/04/04 00:22:48;;;;;;;;;3.00;3.00;;;;;17.68;100.00;100346.16;2103838;28;46790;-64
2024/04/04 00:23:49;;;;;;;;;3.00;2.00;;;;;17.68;100.00;100351.50;2099023;27;45771;-63
2024/04/04 00:24:49;;;;;;;;;2.33;2.33;;;;;17.68;100.00;100351.50;2104850;28;47025;-64
2024/04/04 00:25:49;;;;;;;;;2.00;2.00;;;;;17.67;100.00;100347.09;2104474;27;46969;-64
2024/04/04 00:26:50;;;;;;;;;5.00;4.00;;;;;17.67;100.00;100355.16;2105034;28;46611;-64
2024/04/04 00:27:50;;;;;;;;;3.00;3.00;;;;;17.66;100.00;100345.38;2105347;27;46663;-64
2024/04/04 00:28:50;;;;;;;;;3.00;2.00;;;;;17.65;100.00;100354.34;2104685;27;46298;-63
2024/04/04 00:29:51;;;;;;;;;7.00;3.67;;;;;17.59;100.00;100344.84;2105014;28;46363;-64
2024/04/04 00:30:51;;;;;;;;;2.67;2.00;;;;;17.56;100.00;100336.97;2105229;27;46877;-64
2024/04/04 00:31:51;;;;;;;;;7.00;3.00;;;;;17.54;100.00;100341.56;2105280;28;45706;-63
2024/04/04 00:32:53;;;;;;;;;2.67;2.33;;;;;17.53;100.00;100328.19;2104978;28;46645;-65
2024/04/04 00:33:53;;;;;;;;;2.75;1.75;;;;;17.56;100.00;100328.06;2102870;27;46755;-63
2024/04/04 00:34:54;;;;;;;;;3.00;2.00;;;;;17.55;100.00;100331.69;2104523;27;46311;-63
2024/04/04 00:35:54;;;;;;;;;3.00;3.00;;;;;17.53;100.00;100337.16;2105125;27;46861;-65
2024/04/04 00:36:54;;;;;;;;;5.00;2.00;;;;;17.52;100.00;100332.72;2100648;27;46555;-65
2024/04/04 00:37:55;;;;;;;;;2.00;2.00;;;;;17.52;100.00;100331.84;2097289;28;46389;-64
2024/04/04 00:38:55;;;;;;;;;2.00;2.00;;;;;17.49;100.00;100330.19;2104970;28;46061;-65
2024/04/04 00:39:55;;;;;;;;;4.67;2.00;;;;;17.50;100.00;100326.56;2102465;27;46906;-63
2024/04/04 00:40:55;;;;;;;;;5.00;2.00;;;;;17.51;100.00;100322.94;2096611;28;46170;-64
2024/04/04 00:41:56;;;;;;;;;2.67;2.67;;;;;17.49;100.00;100321.28;2101524;27;46337;-64
2024/04/04 00:42:59;;;;;;;;;2.00;2.00;;;;;17.48;100.00;100311.50;2103897;27;46413;-65
2024/04/04 00:43:59;;;;;;;;;2.50;1.75;;;;;17.51;100.00;100303.28;2105115;27;46559;-64
2024/04/04 00:45:00;;;;;;;;;4.33;2.00;;;;;17.49;100.00;100313.25;2104309;27;46387;-65
2024/04/04 00:46:03;;;;;;;;;2.00;2.00;;;;;17.51;100.00;100314.00;2105018;27;46187;-64
2024/04/04 00:47:03;;;;;;;;;2.00;1.50;;;;;17.47;100.00;100309.78;2105104;27;45807;-64
2024/04/04 00:48:04;;;;;;;;;4.00;4.00;;;;;17.46;100.00;100310.75;2104468;27;46721;-65
2024/04/04 00:49:05;;;;;;;;;2.00;1.67;;;;;17.49;100.00;100302.50;2104790;27;47077;-64
2024/04/04 00:50:06;;;;;;;;;3.75;1.50;;;;;17.49;100.00;100305.19;2105407;27;46580;-64
2024/04/04 00:51:07;;;;;;;;;4.00;2.25;;;;;17.48;100.00;100306.16;2099244;27;46430;-63
2024/04/04 00:52:09;;;;;;;;;2.33;2.33;;;;;17.43;100.00;100303.75;2100753;28;46847;-64
2024/04/04 00:53:09;;;;;;;;;6.00;3.00;;;;;17.44;100.00;100307.28;2097532;27;47155;-64
2024/04/04 00:54:10;;;;;;;;;2.67;2.00;;;;;17.40;100.00;100293.16;2102514;27;46446;-65
2024/04/04 00:55:10;;;;;;;;;2.67;2.67;;;;;17.38;100.00;100299.56;2104876;27;46993;-64
2024/04/04 00:56:11;;;;;;;;;3.00;2.00;;;;;17.36;100.00;100297.84;2104750;27;46561;-64
2024/04/04 00:57:12;;;;;;;;;2.75;1.25;;;;;17.35;100.00;100296.13;2104143;27;47072;-64
2024/04/04 00:58:12;;;;;;;;;2.67;2.33;;;;;17.34;100.00;100299.75;2105422;27;46212;-65
2024/04/04 00:59:13;;;;;;;;;3.00;3.00;;;;;17.32;100.00;100282.88;2103927;28;46157;-64
2024/04/04 01:00:13;;;;;;;;;4.00;4.00;;;;;17.27;100.00;100289.44;2101893;27;46059;-63
2024/04/04 01:01:14;;;;;;;;;3.33;3.00;;;;;17.27;100.00;100292.13;2103696;28;45087;-64
2024/04/04 01:02:14;;;;;;;;;4.00;1.00;;;;;17.23;100.00;100286.06;2104169;27;46084;-65
2024/04/04 01:03:15;;;;;;;;;0.67;0.67;;;;;17.48;100.00;100298.97;2104918;27;46249;-64
2024/04/04 01:04:15;;;;;;;;;1.67;1.67;;;;;17.52;100.00;100292.47;2098252;27;46886;-64
2024/04/04 01:05:15;;;;;;;;;3.33;3.33;;;;;17.56;100.00;100294.03;2100012;28;45847;-65
2024/04/04 01:06:29;;;;;;;;;2.33;2.33;;;;;17.60;100.00;100289.34;2095603;28;45846;-63
2024/04/04 01:07:30;;;;;;;;;2.00;2.00;;;;;17.59;100.00;100280.44;2102785;27;46558;-64
2024/04/04 01:08:32;;;;;;;;;2.00;2.00;;;;;17.57;100.00;100294.91;2102630;27;46425;-63
2024/04/04 01:09:32;;;;;;;;;2.50;2.50;;;;;17.59;100.00;100279.56;2096923;28;46850;-64
2024/04/04 01:10:33;;;;;;;;;3.33;3.33;;;;;17.59;100.00;100280.44;2099162;28;46688;-62
2024/04/04 01:11:33;;;;;;;;;5.00;2.33;;;;;17.58;100.00;100276.03;2098083;28;46690;-64
2024/04/04 01:12:33;;;;;;;;;2.67;2.67;;;;;17.56;100.00;100294.03;2096846;28;46615;-65
2024/04/04 01:13:34;;;;;;;;;3.33;2.00;;;;;17.58;100.00;100276.03;2109274;27;46437;-63
2024/04/04 01:14:34;;;;;;;;;2.33;2.33;;;;;17.49;100.00;100273.00;2113426;27;46459;-64
2024/04/04 01:15:34;;;;;;;;;2.67;2.00;;;;;17.41;100.00;100273.47;2096562;28;46782;-64
2024/04/04 01:16:35;;;;;;;;;2.00;2.00;;;;;17.51;100.00;100273.78;2100858;28;46125;-63
2024/04/04 01:17:36;;;;;;;;;3.00;2.00;;;;;17.31;100.00;100282.97;2106236;27;46300;-63
2024/04/04 01:18:36;;;;;;;;;5.67;3.00;;;;;17.30;100.00;100271.38;2097621;27;46292;-64
2024/04/04 01:19:36;;;;;;;;;2.00;2.00;;;;;17.31;100.00;100259.69;2098427;28;45679;-65
2024/04/04 01:20:36;;;;;;;;;2.00;2.00;;;;;17.33;100.00;100276.56;2096584;28;46934;-64
2024/04/04 01:21:37;;;;;;;;;5.00;3.33;;;;;17.34;100.00;100264.00;2098149;28;45536;-65
2024/04/04 01:22:37;;;;;;;;;4.00;3.00;;;;;17.36;100.00;100262.97;2097565;28;46175;-64
2024/04/04 01:23:41;;;;;;;;;2.67;2.00;;;;;17.39;100.00;100253.00;2097734;28;46718;-64
2024/04/04 01:24:41;;;;;;;;;2.00;2.00;;;;;17.40;100.00;100269.00;2101967;28;46111;-64
2024/04/04 01:25:41;;;;;;;;;3.00;3.00;;;;;17.40;100.00;100246.69;2105586;27;46298;-63
2024/04/04 01:26:42;;;;;;;;;2.67;2.67;;;;;17.41;100.00;100259.19;2098230;28;46341;-65
2024/04/04 01:27:42;;;;;;;;;3.00;2.00;;;;;17.52;100.00;100254.91;2104750;28;46466;-64
2024/04/04 01:28:44;;;;;;;;;5.00;3.00;;;;;17.52;100.00;100254.03;2105255;27;46491;-64
2024/04/04 01:29:45;;;;;;;;;3.75;1.50;;;;;17.50;100.00;100258.63;2104645;27;46095;-64
2024/04/04 01:30:45;;;;;;;;;3.33;2.00;;;;;17.50;100.00;100264.00;2103070;27;46086;-65
2024/04/04 01:31:45;;;;;;;;;6.00;2.67;;;;;17.49;100.00;100273.00;2096970;28;47005;-64
2024/04/04 01:32:45;;;;;;;;;4.00;2.00;;;;;17.46;100.00;100257.94;2104120;28;46237;-64
2024/04/04 01:33:46;;;;;;;;;2.67;2.00;;;;;17.46;100.00;100266.00;2105281;27;46283;-64
2024/04/04 01:34:46;;;;;;;;;2.00;1.67;;;;;17.45;100.00;100256.22;2097650;27;46296;-64
2024/04/04 01:35:47;;;;;;;;;2.00;2.00;;;;;17.43;100.00;100259.97;2110721;27;46145;-64
2024/04/04 01:36:47;;;;;;;;;3.00;2.00;;;;;17.41;100.00;100249.31;2112019;27;46208;-64
2024/04/04 01:37:47;;;;;;;;;5.67;2.00;;;;;17.42;100.00;100252.88;2101833;27;46997;-64
2024/04/04 01:38:47;;;;;;;;;3.00;2.00;;;;;17.43;100.00;100254.59;2099805;27;46683;-65
2024/04/04 01:39:48;;;;;;;;;2.00;1.67;;;;;17.42;100.00;100256.41;2104562;27;46442;-62
2024/04/04 01:40:48;;;;;;;;;2.00;2.00;;;;;17.44;100.00;100253.63;2100250;27;46240;-65
2024/04/04 01:41:49;;;;;;;;;1.67;1.67;;;;;17.42;100.00;100263.59;2100561;27;46710;-63
2024/04/04 01:42:49;;;;;;;;;2.67;2.33;;;;;17.43;100.00;100252.78;2104441;28;46760;-64
2024/04/04 01:43:49;;;;;;;;;3.00;3.00;;;;;17.41;100.00;100261.88;2098891;27;46604;-64
2024/04/04 01:44:49;;;;;;;;;2.00;2.00;;;;;17.36;100.00;100256.75;2104899;28;46169;-64
2024/04/04 01:45:50;;;;;;;;;3.00;3.00;;;;;17.34;100.00;100254.16;2111216;27;45704;-65
2024/04/04 01:46:50;;;;;;;;;1.00;1.00;;;;;17.32;100.00;100250.69;2104012;28;46671;-64
2024/04/04 01:47:50;;;;;;;;;2.67;2.00;;;;;17.31;100.00;100254.34;2101523;28;46718;-64
2024/04/04 01:48:51;;;;;;;;;2.33;2.33;;;;;17.28;100.00;100249.16;2101608;28;46337;-64
2024/04/04 01:49:51;;;;;;;;;1.67;1.67;;;;;17.26;100.00;100261.75;2103265;27;45510;-64
2024/04/04 01:50:51;;;;;;;;;2.33;2.00;;;;;17.25;100.00;100243.06;2102986;28;46562;-64
2024/04/04 01:51:52;;;;;;;;;2.00;1.00;;;;;17.26;100.00;100242.13;2100788;28;46159;-64
2024/04/04 01:52:52;;;;;;;;;1.33;1.33;;;;;17.25;100.00;100237.72;2104179;28;46380;-63
2024/04/04 01:53:52;;;;;;;;;2.00;2.00;;;;;17.24;100.00;100244.03;2101234;28;46724;-64
2024/04/04 01:54:53;;;;;;;;;2.67;2.67;;;;;17.17;100.00;100240.84;2101906;28;45770;-64
2024/04/04 01:56:00;;;;;;;;;2.00;2.00;;;;;17.25;100.00;100235.03;2103808;28;46788;-63
2024/04/04 01:57:00;;;;;;;;;1.75;1.75;;;;;17.16;100.00;100236.44;2103208;27;46371;-64
2024/04/04 01:58:00;;;;;;;;;2.00;2.00;;;;;17.34;100.00;100229.16;2100093;28;46413;-64
2024/04/04 01:59:01;;;;;;;;;0.00;0.00;;;;;17.33;100.00;100222.94;2103643;28;45070;-63
2024/04/04 02:00:01;;;;;;;;;1.00;1.00;;;;;17.35;100.00;100220.16;2100747;28;45780;-64
2024/04/04 02:01:01;;;;;;;;;2.00;2.00;;;;;17.36;100.00;100214.69;2102296;27;46965;-64
2024/04/04 02:02:02;;;;;;;;;3.00;2.00;;;;;17.37;100.00;100218.22;2104125;27;47119;-63
2024/04/04 02:03:03;;;;;;;;;1.00;0.00;;;;;17.38;100.00;100224.47;2101042;27;46115;-64
2024/04/04 02:04:03;;;;;;;;;2.00;1.00;;;;;17.38;100.00;100222.66;2104396;27;46488;-64
2024/04/04 02:05:04;;;;;;;;;4.00;2.67;;;;;17.38;100.00;100213.72;2103820;28;46197;-63
2024/04/04 02:06:04;;;;;;;;;3.33;2.00;;;;;17.37;100.00;100215.56;2100392;28;47478;-65
2024/04/04 02:07:05;;;;;;;;;4.33;3.00;;;;;17.36;100.00;100216.50;2096123;28;45463;-63
2024/04/04 02:08:05;;;;;;;;;2.33;2.33;;;;;17.38;100.00;100216.41;2099138;28;47306;-64
2024/04/04 02:09:06;;;;;;;;;4.00;3.00;;;;;17.36;100.00;100211.16;2103532;28;46628;-63
2024/04/04 02:10:07;;;;;;;;;2.50;2.50;;;;;17.35;100.00;100212.97;2101718;28;47039;-64
2024/04/04 02:11:07;;;;;;;;;3.00;3.00;;;;;17.36;100.00;100206.66;2100924;27;45220;-63
2024/04/04 02:12:09;;;;;;;;;4.00;1.00;;;;;17.35;100.00;100204.91;2104088;28;46614;-65
2024/04/04 02:13:09;;;;;;;;;0.00;0.00;;;;;17.33;100.00;100189.88;2100315;27;46465;-64
2024/04/04 02:14:10;;;;;;;;;3.00;1.67;;;;;17.34;100.00;100207.69;2100437;27;46204;-64
2024/04/04 02:15:10;;;;;;;;;2.00;2.00;;;;;17.30;100.00;100207.00;2102929;28;46258;-63
2024/04/04 02:16:11;;;;;;;;;4.00;1.67;;;;;17.20;100.00;100200.44;2100101;27;47198;-64
2024/04/04 02:17:11;;;;;;;;;2.33;2.00;;;;;17.33;100.00;100209.50;2104565;27;46284;-64
2024/04/04 02:18:12;;;;;;;;;4.67;3.00;;;;;17.36;100.00;100208.47;2104151;27;46491;-65
2024/04/04 02:19:12;;;;;;;;;2.00;2.00;;;;;17.36;100.00;100190.56;2103059;28;46767;-64
2024/04/04 02:20:12;;;;;;;;;6.67;3.00;;;;;17.41;100.00;100209.09;2105307;27;46132;-64
2024/04/04 02:21:12;;;;;;;;;1.00;1.00;;;;;17.42;100.00;100209.94;2099548;27;46127;-63
2024/04/04 02:22:13;;;;;;;;;2.33;1.33;;;;;17.39;100.00;100208.28;2101047;28;46592;-63
2024/04/04 02:23:13;;;;;;;;;2.00;2.00;;;;;17.36;100.00;100206.66;2104198;27;46409;-64
2024/04/04 02:24:14;;;;;;;;;1.00;1.00;;;;;17.35;100.00;100188.81;2101413;27;46722;-63
2024/04/04 02:25:14;;;;;;;;;2.00;2.00;;;;;17.35;100.00;100194.19;2104216;27;46605;-65
2024/04/04 02:26:14;;;;;;;;;1.00;1.00;;;;;17.35;100.00;100204.06;2104620;28;45720;-65
2024/04/04 02:27:14;;;;;;;;;1.00;1.00;;;;;17.36;100.00;100189.69;2105047;28;46318;-64
2024/04/04 02:28:15;;;;;;;;;3.00;3.00;;;;;17.37;100.00;100204.81;2104409;28;46237;-64
2024/04/04 02:29:15;;;;;;;;;4.00;2.33;;;;;17.36;100.00;100193.22;2102885;27;46472;-65
2024/04/04 02:30:16;;;;;;;;;1.00;1.00;;;;;17.36;100.00;100197.72;2104785;28;46726;-64
2024/04/04 02:31:16;;;;;;;;;1.67;1.33;;;;;17.38;100.00;100197.63;2103583;27;46620;-63
2024/04/04 02:32:16;;;;;;;;;0.00;0.00;;;;;17.38;100.00;100189.59;2104946;27;46407;-63
2024/04/04 02:33:19;;;;;;;;;2.00;2.00;;;;;17.39;100.00;100194.88;2098972;27;45735;-64
2024/04/04 02:34:20;;;;;;;;;3.75;3.00;;;;;17.38;100.00;100189.59;2098946;28;46593;-63
2024/04/04 02:35:20;;;;;;;;;0.67;0.67;;;;;17.37;100.00;100194.09;2104492;27;46271;-66
2024/04/04 02:36:21;;;;;;;;;2.00;2.00;;;;;17.38;100.00;100194.97;2104418;27;46374;-65
2024/04/04 02:37:22;;;;;;;;;2.50;2.00;;;;;17.36;100.00;100201.28;2104452;28;45682;-65
2024/04/04 02:38:23;;;;;;;;;2.00;1.00;;;;;17.36;100.00;100203.09;2104310;27;48343;-64
2024/04/04 02:39:25;;;;;;;;;1.50;1.50;;;;;17.35;100.00;100194.19;2101203;27;46596;-64
2024/04/04 02:40:25;;;;;;;;;1.50;1.00;;;;;17.34;100.00;100196.97;2112816;27;45785;-67
2024/04/04 02:41:25;;;;;;;;;1.00;1.00;;;;;17.35;100.00;100204.06;2112283;27;46166;-64
2024/04/04 02:42:27;;;;;;;;;1.00;1.00;;;;;17.33;100.00;100189.88;2100205;27;46169;-64
2024/04/04 02:43:27;;;;;;;;;2.50;1.75;;;;;17.31;100.00;100198.00;2096871;27;46526;-64
2024/04/04 02:44:27;;;;;;;;;2.00;1.00;;;;;17.31;100.00;100207.88;2102088;28;46457;-65
2024/04/04 02:45:29;;;;;;;;;1.00;1.00;;;;;17.28;100.00;100198.19;2102002;28;46243;-64
2024/04/04 02:46:29;;;;;;;;;2.25;1.75;;;;;17.30;100.00;100187.38;2102748;28;46951;-65
2024/04/04 02:47:30;;;;;;;;;1.67;1.67;;;;;17.31;100.00;100194.47;2104162;28;46733;-64
2024/04/04 02:48:31;;;;;;;;;1.00;1.00;;;;;17.30;100.00;100190.06;2104747;28;46832;-66
2024/04/04 02:49:31;;;;;;;;;1.67;0.00;;;;;17.29;100.00;100194.56;2104133;28;46137;-64
2024/04/04 02:50:32;;;;;;;;;1.00;1.00;;;;;17.31;100.00;100197.16;2103313;27;46153;-65
2024/04/04 02:51:32;;;;;;;;;0.00;0.00;;;;;17.30;100.00;100182.88;2095375;28;46502;-64
2024/04/04 02:52:33;;;;;;;;;2.67;0.00;;;;;17.30;100.00;100188.25;2092777;28;45447;-64
2024/04/04 02:53:34;;;;;;;;;1.67;1.00;;;;;17.30;100.00;100187.38;2103198;28;46301;-66
2024/04/04 02:54:34;;;;;;;;;4.00;2.00;;;;;17.30;100.00;100198.97;2096229;28;46930;-65
2024/04/04 02:55:35;;;;;;;;;2.00;0.33;;;;;17.31;100.00;100179.25;2098880;28;46308;-64
2024/04/04 02:56:35;;;;;;;;;1.00;1.00;;;;;17.31;100.00;100187.28;2104231;28;46480;-63
2024/04/04 02:57:38;;;;;;;;;2.33;0.00;;;;;17.31;100.00;100187.28;2098719;28;46112;-65
2024/04/04 02:58:38;;;;;;;;;1.75;0.75;;;;;17.31;100.00;100181.91;2097432;28;46792;-64
2024/04/04 02:59:38;;;;;;;;;1.00;1.00;;;;;17.29;100.00;100180.28;2098220;27;46621;-65
2024/04/04 03:00:39;;;;;;;;;1.00;0.67;;;;;17.31;100.00;100183.75;2103734;28;46918;-65
2024/04/04 03:01:39;;;;;;;;;2.00;1.00;;;;;17.29;100.00;100173.09;2103466;27;46435;-64
2024/04/04 03:02:39;;;;;;;;;1.00;1.00;;;;;17.29;100.00;100169.56;2104292;27;46666;-64
2024/04/04 03:03:40;;;;;;;;;0.67;0.00;;;;;17.31;100.00;100173.00;2104685;27;46333;-64
2024/04/04 03:04:40;;;;;;;;;1.00;1.00;;;;;17.29;100.00;100173.09;2104724;27;46245;-65
2024/04/04 03:05:41;;;;;;;;;2.33;1.00;;;;;17.30;100.00;100165.91;2097681;27;46400;-64
2024/04/04 03:06:42;;;;;;;;;0.00;0.00;;;;;17.30;100.00;100164.09;2098521;28;46294;-65
2024/04/04 03:07:42;;;;;;;;;0.00;0.00;;;;;17.28;100.00;100174.06;2112906;27;45863;-64
2024/04/04 03:08:43;;;;;;;;;1.00;1.00;;;;;17.29;100.00;100178.47;2111958;27;46333;-63
2024/04/04 03:09:46;;;;;;;;;3.00;2.00;;;;;17.27;100.00;100174.97;2104212;27;46249;-63
2024/04/04 03:10:46;;;;;;;;;0.75;0.25;;;;;17.28;100.00;100162.47;2104376;27;46442;-64
2024/04/04 03:11:47;;;;;;;;;1.33;0.00;;;;;17.28;100.00;100175.88;2103909;27;46491;-64
2024/04/04 03:12:49;;;;;;;;;1.00;1.00;;;;;17.26;100.00;100157.16;2103640;27;46689;-65
2024/04/04 03:13:50;;;;;;;;;0.75;0.75;;;;;17.25;100.00;100160.81;2097050;28;46606;-65
2024/04/04 03:14:50;;;;;;;;;2.00;0.33;;;;;17.27;100.00;100152.66;2097948;28;46347;-66
2024/04/04 03:15:57;;;;;;;;;0.00;0.00;;;;;17.26;100.00;100156.31;2104381;28;46666;-64
2024/04/04 03:16:58;;;;;;;;;0.75;0.75;;;;;17.26;100.00;100148.25;2096155;27;46629;-65
2024/04/04 03:17:58;;;;;;;;;1.67;1.00;;;;;17.25;100.00;100159.94;2100298;28;45126;-65
2024/04/04 03:18:59;;;;;;;;;2.33;1.00;;;;;17.23;100.00;100149.31;2105989;27;46822;-63
2024/04/04 03:19:59;;;;;;;;;0.33;0.33;;;;;17.22;100.00;100149.41;2105283;27;46879;-63
2024/04/04 03:20:59;;;;;;;;;1.00;1.00;;;;;17.19;100.00;100134.38;2105309;27;46182;-63
2024/04/04 03:21:59;;;;;;;;;2.00;2.00;;;;;17.18;100.00;100143.38;2096039;28;46090;-64
2024/04/04 03:23:00;;;;;;;;;1.33;0.00;;;;;17.17;100.00;100140.78;2095027;28;45228;-64
2024/04/04 03:24:00;;;;;;;;;1.00;1.00;;;;;17.17;100.00;100136.28;2105200;28;45701;-63
2024/04/04 03:25:00;;;;;;;;;3.33;1.00;;;;;17.18;100.00;100142.50;2105158;28;46423;-63
2024/04/04 03:26:01;;;;;;;;;0.67;0.67;;;;;17.19;100.00;100133.50;2105392;28;46284;-65
2024/04/04 03:27:01;;;;;;;;;1.33;0.00;;;;;17.18;100.00;100146.03;2105817;27;46459;-64
2024/04/04 03:28:01;;;;;;;;;2.00;1.00;;;;;17.18;100.00;100148.72;2104090;27;46414;-64
2024/04/04 03:29:02;;;;;;;;;1.00;1.00;;;;;17.17;100.00;100127.38;2105763;28;45877;-64
2024/04/04 03:30:02;;;;;;;;;1.00;0.00;;;;;17.15;100.00;100135.50;2105096;27;46614;-64
2024/04/04 03:31:03;;;;;;;;;2.00;1.00;;;;;17.14;100.00;100136.44;2105166;27;46638;-64
2024/04/04 03:32:03;;;;;;;;;1.00;1.00;;;;;17.14;100.00;100141.78;2104161;27;46323;-65
2024/04/04 03:33:04;;;;;;;;;2.67;1.00;;;;;17.11;100.00;100133.94;2105261;28;46642;-64
2024/04/04 03:34:04;;;;;;;;;0.00;0.00;;;;;17.10;100.00;100123.31;2105412;27;46996;-64
2024/04/04 03:35:04;;;;;;;;;4.00;1.00;;;;;17.11;100.00;100127.72;2104955;28;46783;-64
2024/04/04 03:36:05;;;;;;;;;0.00;0.00;;;;;17.08;100.00;100139.47;2090218;28;46174;-64
2024/04/04 03:37:05;;;;;;;;;0.00;0.00;;;;;17.06;100.00;100127.97;2097894;28;45659;-65
2024/04/04 03:38:05;;;;;;;;;0.00;0.00;;;;;17.06;100.00;100120.81;2105495;27;45947;-64
2024/04/04 03:39:06;;;;;;;;;0.67;0.00;;;;;17.03;100.00;100129.03;2105501;27;44943;-65
2024/04/04 03:40:07;;;;;;;;;1.00;1.00;;;;;16.96;100.00;100127.63;2105618;27;47050;-65
2024/04/04 03:41:07;;;;;;;;;2.50;1.00;;;;;16.87;100.00;100135.34;2105243;27;46635;-64
2024/04/04 03:42:08;;;;;;;;;1.67;1.00;;;;;16.95;100.00;100122.38;2104988;27;46161;-64
2024/04/04 03:43:08;;;;;;;;;1.00;0.00;;;;;16.84;100.00;100125.66;2105261;28;47272;-65
2024/04/04 03:44:09;;;;;;;;;2.00;1.00;;;;;16.88;100.00;100127.19;2104990;28;46710;-64
2024/04/04 03:45:09;;;;;;;;;0.67;0.00;;;;;16.95;100.00;100139.31;2104878;27;47000;-64
2024/04/04 03:46:11;;;;;;;;;0.00;0.00;;;;;16.98;100.00;100111.47;2100832;28;46795;-65
2024/04/04 03:47:12;;;;;;;;;2.00;2.00;;;;;16.98;100.00;100119.50;2103144;28;47125;-64
2024/04/04 03:48:12;;;;;;;;;1.00;0.00;;;;;16.82;100.00;100132.06;2106086;28;46636;-65
2024/04/04 03:49:12;;;;;;;;;2.33;0.00;;;;;16.73;100.00;100114.69;2103688;28;46203;-65
2024/04/04 03:50:13;;;;;;;;;0.67;0.00;;;;;16.94;100.00;100116.16;2104196;27;46295;-66
2024/04/04 03:51:13;;;;;;;;;0.00;0.00;;;;;16.97;100.00;100123.16;2097205;28;46553;-64
2024/04/04 03:52:15;;;;;;;;;2.67;1.00;;;;;16.99;100.00;100126.59;2098972;28;46203;-64
2024/04/04 03:53:16;;;;;;;;;0.00;0.00;;;;;16.98;100.00;100130.22;2097752;28;47210;-66
2024/04/04 03:54:16;;;;;;;;;2.67;1.67;;;;;16.98;100.00;100132.91;2105643;28;46198;-63
2024/04/04 03:55:16;;;;;;;;;1.00;1.00;;;;;16.98;100.00;100155.22;2104407;27;46299;-65
2024/04/04 03:56:17;;;;;;;;;1.67;0.67;;;;;16.96;100.00;100127.63;2105648;27;45773;-64
2024/04/04 03:57:17;;;;;;;;;1.00;0.67;;;;;16.96;100.00;100124.09;2100096;28;46758;-64
2024/04/04 03:58:18;;;;;;;;;0.00;0.00;;;;;16.94;100.00;100126.88;2103266;28;47504;-65
2024/04/04 03:59:19;;;;;;;;;0.25;0.25;;;;;16.92;100.00;100128.78;2097455;28;46700;-64
2024/04/04 04:00:19;;;;;;;;;2.00;1.00;;;;;16.92;100.00;100120.75;2102204;28;45557;-63
2024/04/04 04:01:19;;;;;;;;;1.00;0.00;;;;;16.87;100.00;100116.56;2105378;27;46541;-64
2024/04/04 04:02:20;;;;;;;;;1.33;0.00;;;;;16.88;100.00;100131.69;2097304;28;46281;-64
2024/04/04 04:03:20;;;;;;;;;0.00;0.00;;;;;16.88;100.00;100129.03;2101498;28;45336;-66
2024/04/04 04:04:20;;;;;;;;;0.00;0.00;;;;;16.84;100.00;100122.13;2104261;28;46558;-64
2024/04/04 04:05:21;;;;;;;;;0.00;0.00;;;;;16.85;100.00;100119.34;2102702;28;45548;-64
2024/04/04 04:06:21;;;;;;;;;0.00;0.00;;;;;16.86;100.00;100112.16;2105012;27;46678;-64
2024/04/04 04:07:21;;;;;;;;;1.00;1.00;;;;;16.86;100.00;100120.22;2105226;28;46750;-64
2024/04/04 04:08:22;;;;;;;;;0.00;0.00;;;;;16.85;100.00;100127.38;2101514;28;46480;-64
2024/04/04 04:09:22;;;;;;;;;0.00;0.00;;;;;16.85;100.00;100126.53;2100130;28;46386;-64
2024/04/04 04:10:28;;;;;;;;;0.00;0.00;;;;;16.85;100.00;100129.19;2105244;27;46804;-64
2024/04/04 04:11:28;;;;;;;;;0.25;0.25;;;;;16.84;100.00;100122.97;2102086;27;46715;-64
2024/04/04 04:12:28;;;;;;;;;0.33;0.33;;;;;16.84;100.00;100119.44;2098061;28;46174;-64
2024/04/04 04:13:29;;;;;;;;;0.67;0.67;;;;;16.83;100.00;100133.78;2102707;28;46158;-64
2024/04/04 04:14:29;;;;;;;;;0.00;0.00;;;;;16.82;100.00;100153.50;2102353;28;45945;-64
2024/04/04 04:15:29;;;;;;;;;0.33;0.33;;;;;16.79;100.00;100133.09;2105240;27;46421;-64
2024/04/04 04:16:30;;;;;;;;;0.33;0.33;;;;;16.80;100.00;100126.78;2105889;27;45584;-64
2024/04/04 04:17:31;;;;;;;;;0.33;0.33;;;;;16.80;100.00;100131.28;2104833;28;46692;-63
2024/04/04 04:18:31;;;;;;;;;0.75;0.00;;;;;16.80;100.00;100131.28;2098241;27;46916;-64
2024/04/04 04:19:32;;;;;;;;;0.33;0.33;;;;;16.80;100.00;100129.47;2102990;28;45927;-63
2024/04/04 04:21:54;;;;;;;;;0.75;0.75;;;;;16.79;100.00;100154.56;2104104;28;46867;-64
2024/04/04 04:22:54;;;;;;;;;0.33;0.33;;;;;16.77;100.00;100148.41;2100124;28;46812;-64
2024/04/04 04:24:00;;;;;;;;;0.00;0.00;;;;;16.76;100.00;100149.34;2104734;28;46291;-64
2024/04/04 04:25:00;;;;;;;;;1.50;0.00;;;;;16.74;100.00;100144.06;2105812;28;45779;-63
2024/04/04 04:26:00;;;;;;;;;1.33;1.33;;;;;16.74;100.00;100157.47;2103698;27;45891;-64
2024/04/04 04:27:00;;;;;;;;;0.00;0.00;;;;;16.73;100.00;100165.59;2105512;28;46589;-61
2024/04/04 04:28:01;;;;;;;;;0.00;0.00;;;;;16.73;100.00;100160.22;2105471;28;46626;-63
2024/04/04 04:29:01;;;;;;;;;1.00;0.00;;;;;16.72;100.00;100142.44;2105089;27;45120;-64
2024/04/04 04:30:01;;;;;;;;;0.00;0.00;;;;;16.69;100.00;100154.19;2095194;28;46249;-63
2024/04/04 04:31:03;;;;;;;;;0.00;0.00;;;;;16.73;100.00;100154.88;2095956;28;46882;-64
2024/04/04 04:32:04;;;;;;;;;1.25;0.00;;;;;16.72;100.00;100167.41;2100393;28;46799;-65
2024/04/04 04:33:04;;;;;;;;;1.00;0.00;;;;;16.69;100.00;100162.22;2102845;28;46377;-64
2024/04/04 04:34:05;;;;;;;;;0.00;0.00;;;;;16.72;100.00;100161.19;2104517;27;45744;-64
2024/04/04 04:35:06;;;;;;;;;1.67;0.33;;;;;16.73;100.00;100169.13;2103285;28;46303;-65
2024/04/04 04:36:06;;;;;;;;;0.00;0.00;;;;;16.72;100.00;100158.50;2101389;28;46203;-64
2024/04/04 04:37:07;;;;;;;;;0.67;0.67;;;;;16.71;100.00;100179.06;2104988;27;46579;-64
2024/04/04 04:38:08;;;;;;;;;0.25;0.25;;;;;16.69;100.00;100159.53;2104333;27;45684;-62
2024/04/04 04:39:09;;;;;;;;;1.00;1.00;;;;;16.69;100.00;100174.75;2099428;28;45725;-65
2024/04/04 04:40:10;;;;;;;;;1.00;1.00;;;;;16.65;100.00;100168.69;2100104;28;46362;-63